createdAt,value
2017-03-08T00:00:41.430Z,0
2017-03-08T00:01:52.119Z,0
2017-03-08T00:03:02.827Z,0
2017-03-08T00:04:13.536Z,0
2017-03-08T00:05:24.238Z,0
2017-03-08T00:06:34.950Z,0
2017-03-08T00:07:45.299Z,0
2017-03-08T00:08:56.006Z,0
2017-03-08T00:10:06.318Z,0
2017-03-08T00:11:17.027Z,0
2017-03-08T00:12:27.754Z,0
2017-03-08T00:13:38.467Z,0
2017-03-08T00:14:48.764Z,0
2017-03-08T00:15:59.465Z,0
2017-03-08T00:17:10.185Z,0
2017-03-08T00:18:20.871Z,0
2017-03-08T00:19:31.583Z,0
2017-03-08T00:20:41.879Z,0
2017-03-08T00:21:52.590Z,0
2017-03-08T00:23:03.289Z,0
2017-03-08T00:24:13.992Z,0
2017-03-08T00:25:24.299Z,0
2017-03-08T00:26:34.986Z,0
2017-03-08T00:27:45.715Z,0
2017-03-08T00:28:56.010Z,0
2017-03-08T00:30:06.719Z,0
2017-03-08T00:31:17.427Z,0
2017-03-08T00:32:28.131Z,0
2017-03-08T00:33:38.832Z,0
2017-03-08T00:34:49.534Z,0
2017-03-08T00:36:00.224Z,0
2017-03-08T00:37:10.917Z,0
2017-03-08T00:38:21.610Z,0
2017-03-08T00:39:32.334Z,0
2017-03-08T00:40:43.045Z,0
2017-03-08T00:41:53.738Z,0
2017-03-08T00:43:04.434Z,0
2017-03-08T00:44:15.144Z,0
2017-03-08T00:45:25.855Z,0
2017-03-08T00:46:36.554Z,0
2017-03-08T00:47:47.268Z,0
2017-03-08T00:48:57.965Z,0
2017-03-08T00:50:08.681Z,0
2017-03-08T00:51:19.371Z,0
2017-03-08T00:52:29.685Z,0
2017-03-08T00:53:40.388Z,0
2017-03-08T00:54:51.095Z,0
2017-03-08T00:56:01.807Z,0
2017-03-08T00:57:12.507Z,0
2017-03-08T00:58:23.227Z,0
2017-03-08T00:59:33.530Z,0
2017-03-08T01:00:44.252Z,0
2017-03-08T01:01:54.953Z,0
2017-03-08T01:03:05.649Z,0
2017-03-08T01:04:16.353Z,0
2017-03-08T01:05:27.064Z,0
2017-03-08T01:06:37.765Z,0
2017-03-08T01:07:48.078Z,0
2017-03-08T01:08:58.806Z,0
2017-03-08T01:10:09.510Z,0
2017-03-08T01:11:19.828Z,0
2017-03-08T01:12:30.519Z,0
2017-03-08T01:13:41.255Z,0
2017-03-08T01:14:51.979Z,0
2017-03-08T01:16:02.698Z,0
2017-03-08T01:17:13.414Z,0
2017-03-08T01:18:24.117Z,0
2017-03-08T01:19:34.824Z,0
2017-03-08T01:20:45.515Z,0
2017-03-08T01:21:55.830Z,0
2017-03-08T01:23:06.566Z,0
2017-03-08T01:24:16.859Z,0
2017-03-08T01:25:27.563Z,0
2017-03-08T01:26:38.265Z,0
2017-03-08T01:27:48.961Z,0
2017-03-08T01:28:59.666Z,0
2017-03-08T01:30:09.972Z,0
2017-03-08T01:31:20.666Z,0
2017-03-08T01:32:31.388Z,0
2017-03-08T01:33:41.692Z,0
2017-03-08T01:34:52.386Z,0
2017-03-08T01:36:03.084Z,0
2017-03-08T01:37:13.008Z,0
2017-03-08T01:38:23.306Z,0
2017-03-08T01:39:34.022Z,0
2017-03-08T01:40:44.715Z,0
2017-03-08T01:41:55.037Z,0
2017-03-08T01:43:05.729Z,0
2017-03-08T01:44:16.439Z,0
2017-03-08T01:45:27.152Z,0
2017-03-08T01:46:37.846Z,0
2017-03-08T01:47:48.543Z,0
2017-03-08T01:48:58.863Z,0
2017-03-08T01:50:09.572Z,0
2017-03-08T01:51:19.882Z,0
2017-03-08T01:52:30.200Z,0
2017-03-08T01:53:40.901Z,0
2017-03-08T01:54:51.218Z,0
2017-03-08T01:56:01.940Z,0
2017-03-08T01:57:12.654Z,0
2017-03-08T01:58:22.955Z,0
2017-03-08T01:59:33.647Z,0
2017-03-08T02:00:43.965Z,0
2017-03-08T02:01:54.666Z,0
2017-03-08T02:03:05.370Z,0
2017-03-08T02:04:16.060Z,0
2017-03-08T02:05:26.363Z,0
2017-03-08T02:06:37.057Z,0
2017-03-08T02:07:47.766Z,0
2017-03-08T02:08:58.474Z,0
2017-03-08T02:10:09.196Z,0
2017-03-08T02:11:19.516Z,0
2017-03-08T02:12:30.228Z,0
2017-03-08T02:13:40.913Z,0
2017-03-08T02:14:51.618Z,0
2017-03-08T02:16:02.312Z,0
2017-03-08T02:17:13.015Z,0
2017-03-08T02:18:23.707Z,0
2017-03-08T02:19:34.423Z,0
2017-03-08T02:20:44.722Z,0
2017-03-08T02:21:55.416Z,0
2017-03-08T02:23:06.160Z,0
2017-03-08T02:24:16.083Z,0
2017-03-08T02:25:26.801Z,0
2017-03-08T02:26:37.504Z,0
2017-03-08T02:27:48.202Z,0
2017-03-08T02:28:58.888Z,0
2017-03-08T02:30:09.617Z,0
2017-03-08T02:31:20.330Z,0
2017-03-08T02:32:30.621Z,0
2017-03-08T02:33:40.943Z,0
2017-03-08T02:34:51.658Z,0
2017-03-08T02:36:02.361Z,0
2017-03-08T02:37:13.096Z,0
2017-03-08T02:38:23.008Z,0
2017-03-08T02:39:33.697Z,0
2017-03-08T02:40:44.385Z,0
2017-03-08T02:41:55.140Z,0
2017-03-08T02:43:05.876Z,0
2017-03-08T02:44:16.184Z,0
2017-03-08T02:45:26.877Z,0
2017-03-08T02:46:37.619Z,0
2017-03-08T02:47:48.331Z,0
2017-03-08T02:48:59.058Z,0
2017-03-08T02:50:09.742Z,0
2017-03-08T02:51:19.644Z,0
2017-03-08T02:52:29.971Z,0
2017-03-08T02:53:40.679Z,0
2017-03-08T02:54:51.381Z,0
2017-03-08T02:57:29.811Z,0
2017-03-08T02:58:40.499Z,0
2017-03-08T02:59:50.798Z,0
2017-03-08T03:01:01.119Z,0
2017-03-08T03:02:11.525Z,0
2017-03-08T03:03:22.251Z,0
2017-03-08T03:04:32.939Z,0
2017-03-08T03:05:43.640Z,0
2017-03-08T03:06:54.337Z,0
2017-03-08T03:08:07.486Z,0
2017-03-08T03:09:18.195Z,0
2017-03-08T03:10:28.892Z,0
2017-03-08T03:11:39.592Z,0
2017-03-08T03:12:49.910Z,0
2017-03-08T03:14:00.961Z,0
2017-03-08T03:15:11.682Z,0
2017-03-08T03:16:21.988Z,0
2017-03-08T03:17:32.307Z,0
2017-03-08T03:18:43.039Z,0
2017-03-08T03:19:53.446Z,0
2017-03-08T03:21:03.757Z,0
2017-03-08T03:22:14.450Z,0
2017-03-08T03:23:24.791Z,0
2017-03-08T03:24:35.485Z,0
2017-03-08T03:25:49.124Z,0
2017-03-08T03:26:59.810Z,0
2017-03-08T03:28:10.132Z,0
2017-03-08T03:29:20.851Z,0
2017-03-08T03:30:31.152Z,0
2017-03-08T03:31:41.942Z,0
2017-03-08T03:32:52.252Z,0
2017-03-08T03:34:02.566Z,0
2017-03-08T03:35:13.284Z,0
2017-03-08T03:36:24.005Z,0
2017-03-08T03:37:35.021Z,0
2017-03-08T03:38:45.723Z,0
2017-03-08T03:39:56.435Z,0
2017-03-08T03:41:07.135Z,0
2017-03-08T03:42:17.837Z,0
2017-03-08T03:43:28.630Z,0
2017-03-08T03:44:39.333Z,0
2017-03-08T03:45:50.026Z,0
2017-03-08T03:47:00.740Z,0
2017-03-08T03:48:11.034Z,0
2017-03-08T03:49:21.767Z,0
2017-03-08T03:50:32.462Z,0
2017-03-08T03:51:43.165Z,0
2017-03-08T03:52:53.898Z,0
2017-03-08T03:54:04.586Z,0
2017-03-08T03:55:15.281Z,0
2017-03-08T03:56:25.213Z,0
2017-03-08T03:57:35.912Z,0
2017-03-08T03:58:46.619Z,0
2017-03-08T03:59:57.327Z,0
2017-03-08T04:01:08.036Z,0
2017-03-08T04:02:18.737Z,0
2017-03-08T04:03:29.468Z,0
2017-03-08T04:04:40.157Z,0
2017-03-08T04:05:50.470Z,0
2017-03-08T04:07:01.189Z,0
2017-03-08T04:08:11.086Z,0
2017-03-08T04:09:21.795Z,0
2017-03-08T04:10:32.502Z,0
2017-03-08T04:11:42.803Z,0
2017-03-08T04:12:53.119Z,0
2017-03-08T04:14:03.804Z,0
2017-03-08T04:15:14.497Z,0
2017-03-08T04:16:24.791Z,0
2017-03-08T04:17:35.512Z,0
2017-03-08T04:18:46.211Z,0
2017-03-08T04:19:56.899Z,0
2017-03-08T04:21:07.223Z,0
2017-03-08T04:22:17.925Z,0
2017-03-08T04:23:28.634Z,0
2017-03-08T04:24:38.942Z,0
2017-03-08T04:25:49.651Z,0
2017-03-08T04:27:00.359Z,0
2017-03-08T04:28:11.073Z,0
2017-03-08T04:29:21.409Z,0
2017-03-08T04:30:32.115Z,0
2017-03-08T04:31:42.821Z,0
2017-03-08T04:32:53.509Z,0
2017-03-08T04:34:04.221Z,0
2017-03-08T04:35:14.918Z,0
2017-03-08T04:36:25.613Z,0
2017-03-08T04:37:35.929Z,0
2017-03-08T04:38:46.643Z,0
2017-03-08T04:39:57.365Z,0
2017-03-08T04:41:08.075Z,0
2017-03-08T04:42:18.770Z,0
2017-03-08T04:43:29.488Z,0
2017-03-08T04:44:40.194Z,0
2017-03-08T04:45:50.508Z,0
2017-03-08T04:47:01.229Z,0
2017-03-08T04:48:11.539Z,0
2017-03-08T04:49:22.233Z,0
2017-03-08T04:50:32.530Z,0
2017-03-08T04:51:43.231Z,0
2017-03-08T04:52:53.929Z,0
2017-03-08T04:54:04.629Z,0
2017-03-08T04:55:15.357Z,0
2017-03-08T04:56:25.287Z,0
2017-03-08T04:57:36.013Z,0
2017-03-08T04:58:46.705Z,0
2017-03-08T04:59:57.418Z,0
2017-03-08T05:01:07.716Z,0
2017-03-08T05:02:18.416Z,0
2017-03-08T05:03:29.118Z,0
2017-03-08T05:04:39.826Z,0
2017-03-08T05:05:50.120Z,0
2017-03-08T05:07:00.824Z,0
2017-03-08T05:08:11.122Z,0
2017-03-08T05:09:21.434Z,0
2017-03-08T05:10:32.164Z,0
2017-03-08T05:11:42.869Z,0
2017-03-08T05:12:53.204Z,0
2017-03-08T05:14:03.914Z,0
2017-03-08T05:15:14.617Z,0
2017-03-08T05:16:25.330Z,0
2017-03-08T05:17:35.637Z,0
2017-03-08T05:18:46.347Z,4
2017-03-08T05:19:57.072Z,4
2017-03-08T05:21:07.796Z,0
2017-03-08T05:22:18.493Z,4
2017-03-08T05:23:29.204Z,4
2017-03-08T05:24:39.897Z,4
2017-03-08T05:25:50.617Z,4
2017-03-08T05:27:01.334Z,4
2017-03-08T05:28:12.047Z,8
2017-03-08T05:29:22.746Z,8
2017-03-08T05:30:33.459Z,12
2017-03-08T05:31:44.173Z,12
2017-03-08T05:32:54.884Z,16
2017-03-08T05:34:05.578Z,16
2017-03-08T05:35:16.283Z,20
2017-03-08T05:36:26.600Z,24
2017-03-08T05:37:37.301Z,28
2017-03-08T05:38:48.011Z,32
2017-03-08T05:39:58.707Z,40
2017-03-08T05:41:09.411Z,44
2017-03-08T05:42:20.118Z,52
2017-03-08T05:43:30.420Z,60
2017-03-08T05:44:41.107Z,68
2017-03-08T05:45:51.812Z,76
2017-03-08T05:47:02.506Z,88
2017-03-08T05:48:13.208Z,96
2017-03-08T05:49:23.524Z,104
2017-03-08T05:50:34.256Z,120
2017-03-08T05:51:44.958Z,132
2017-03-08T05:52:55.655Z,144
2017-03-08T05:54:05.958Z,156
2017-03-08T05:55:16.691Z,172
2017-03-08T05:56:27.390Z,188
2017-03-08T05:57:38.084Z,204
2017-03-08T05:58:48.777Z,220
2017-03-08T05:59:59.484Z,236
2017-03-08T06:01:09.796Z,260
2017-03-08T06:02:20.522Z,280
2017-03-08T06:03:31.223Z,296
2017-03-08T06:04:41.919Z,316
2017-03-08T06:05:52.621Z,340
2017-03-08T06:07:03.322Z,364
2017-03-08T06:08:14.019Z,388
2017-03-08T06:09:24.711Z,412
2017-03-08T06:10:35.015Z,436
2017-03-08T06:11:45.741Z,464
2017-03-08T06:12:56.439Z,492
2017-03-08T06:14:07.154Z,524
2017-03-08T06:15:17.866Z,556
2017-03-08T06:16:28.583Z,576
2017-03-08T06:17:39.275Z,592
2017-03-08T06:18:49.581Z,620
2017-03-08T06:20:00.285Z,660
2017-03-08T06:21:11.004Z,696
2017-03-08T06:22:21.707Z,724
2017-03-08T06:23:32.404Z,756
2017-03-08T06:24:43.102Z,788
2017-03-08T06:25:53.806Z,816
2017-03-08T06:27:03.707Z,856
2017-03-08T06:28:14.405Z,900
2017-03-08T06:29:25.120Z,944
2017-03-08T06:30:35.843Z,980
2017-03-08T06:31:46.155Z,1012
2017-03-08T06:32:56.864Z,1064
2017-03-08T06:34:07.575Z,1148
2017-03-08T06:35:18.259Z,1216
2017-03-08T06:36:28.978Z,1264
2017-03-08T06:37:39.702Z,1300
2017-03-08T06:38:50.415Z,1348
2017-03-08T06:40:01.131Z,1408
2017-03-08T06:41:11.832Z,1464
2017-03-08T06:42:22.134Z,1516
2017-03-08T06:43:32.875Z,1564
2017-03-08T06:44:43.617Z,1628
2017-03-08T06:45:54.321Z,1700
2017-03-08T06:47:05.023Z,1756
2017-03-08T06:48:15.736Z,1800
2017-03-08T06:49:26.031Z,1836
2017-03-08T06:50:36.330Z,1876
2017-03-08T06:51:46.652Z,1912
2017-03-08T06:52:56.990Z,1968
2017-03-08T06:54:07.715Z,2052
2017-03-08T06:55:18.439Z,2092
2017-03-08T06:56:28.746Z,2112
2017-03-08T06:57:39.459Z,2160
2017-03-08T06:58:50.157Z,2208
2017-03-08T07:00:00.484Z,2244
2017-03-08T07:01:10.816Z,2280
2017-03-08T07:02:21.500Z,2344
2017-03-08T07:03:31.807Z,2408
2017-03-08T07:04:42.500Z,2460
2017-03-08T07:05:52.836Z,2540
2017-03-08T07:07:03.536Z,2636
2017-03-08T07:08:14.250Z,2684
2017-03-08T07:09:24.949Z,2700
2017-03-08T07:10:35.649Z,2752
2017-03-08T07:11:45.950Z,2840
2017-03-08T07:12:56.651Z,2888
2017-03-08T07:14:07.354Z,2900
2017-03-08T07:15:18.081Z,2956
2017-03-08T07:16:28.802Z,3044
2017-03-08T07:17:39.487Z,3112
2017-03-08T07:18:50.213Z,3124
2017-03-08T07:20:00.510Z,3184
2017-03-08T07:21:11.233Z,3272
2017-03-08T07:22:21.936Z,3324
2017-03-08T07:23:31.838Z,3372
2017-03-08T07:24:42.131Z,3416
2017-03-08T07:25:52.433Z,3432
2017-03-08T07:27:03.130Z,3488
2017-03-08T07:28:13.459Z,3612
2017-03-08T07:29:23.770Z,3700
2017-03-08T07:30:34.459Z,3732
2017-03-08T07:31:44.765Z,3772
2017-03-08T07:32:55.069Z,3856
2017-03-08T07:34:05.776Z,3876
2017-03-08T07:35:16.490Z,3876
2017-03-08T07:36:27.186Z,4020
2017-03-08T07:37:37.890Z,4120
2017-03-08T07:38:48.604Z,4116
2017-03-08T07:39:59.306Z,4204
2017-03-08T07:41:10.018Z,4304
2017-03-08T07:42:20.331Z,4332
2017-03-08T07:43:30.672Z,4416
2017-03-08T07:44:41.442Z,4544
2017-03-08T07:45:51.754Z,4628
2017-03-08T07:47:02.488Z,4676
2017-03-08T07:48:13.196Z,4748
2017-03-08T07:49:23.108Z,4868
2017-03-08T07:50:33.828Z,4980
2017-03-08T07:51:44.525Z,5064
2017-03-08T07:52:54.846Z,5100
2017-03-08T07:54:05.556Z,5180
2017-03-08T07:55:16.252Z,5288
2017-03-08T07:56:26.165Z,5384
2017-03-08T07:57:36.885Z,5432
2017-03-08T07:58:47.619Z,5536
2017-03-08T07:59:58.325Z,5652
2017-03-08T08:01:09.013Z,5708
2017-03-08T08:02:19.319Z,5812
2017-03-08T08:03:29.620Z,5944
2017-03-08T08:04:39.919Z,6092
2017-03-08T08:05:50.624Z,6152
2017-03-08T08:07:00.549Z,6164
2017-03-08T08:08:11.239Z,6228
2017-03-08T08:09:21.580Z,6232
2017-03-08T08:10:31.873Z,6220
2017-03-08T08:11:42.591Z,6212
2017-03-08T08:12:52.904Z,6144
2017-03-08T08:14:03.602Z,6028
2017-03-08T08:15:14.302Z,6024
2017-03-08T08:16:25.014Z,6096
2017-03-08T08:17:35.353Z,6168
2017-03-08T08:18:46.048Z,6232
2017-03-08T08:19:56.754Z,6300
2017-03-08T08:21:07.442Z,6340
2017-03-08T08:22:18.163Z,6344
2017-03-08T08:23:28.867Z,6424
2017-03-08T08:24:39.562Z,6436
2017-03-08T08:25:50.265Z,6332
2017-03-08T08:27:00.961Z,6180
2017-03-08T08:28:11.688Z,6112
2017-03-08T08:29:21.598Z,6088
2017-03-08T08:30:31.910Z,6088
2017-03-08T08:31:42.640Z,6272
2017-03-08T08:32:53.341Z,6304
2017-03-08T08:34:04.092Z,6240
2017-03-08T08:35:14.799Z,6100
2017-03-08T08:36:25.092Z,5944
2017-03-08T08:37:35.800Z,5800
2017-03-08T08:38:46.526Z,5816
2017-03-08T08:39:57.254Z,6020
2017-03-08T08:41:07.943Z,6172
2017-03-08T08:42:18.661Z,6148
2017-03-08T08:43:29.364Z,6040
2017-03-08T08:44:39.272Z,6028
2017-03-08T08:45:49.588Z,6060
2017-03-08T08:47:00.290Z,6072
2017-03-08T08:48:10.999Z,5924
2017-03-08T08:49:21.322Z,5584
2017-03-08T08:50:32.034Z,5148
2017-03-08T08:51:42.728Z,4760
2017-03-08T08:52:53.431Z,4456
2017-03-08T08:54:04.133Z,4292
2017-03-08T08:55:14.823Z,4264
2017-03-08T08:56:25.546Z,4348
2017-03-08T08:57:36.250Z,5092
2017-03-08T08:58:46.540Z,4872
2017-03-08T08:59:57.240Z,5728
2017-03-08T09:01:07.939Z,5652
2017-03-08T09:02:18.638Z,5672
2017-03-08T09:03:28.961Z,5620
2017-03-08T09:04:39.660Z,5588
2017-03-08T09:05:50.376Z,5592
2017-03-08T09:07:01.072Z,5608
2017-03-08T09:08:11.769Z,5452
2017-03-08T09:09:22.479Z,5632
2017-03-08T09:10:32.789Z,5636
2017-03-08T09:11:43.507Z,5660
2017-03-08T09:12:54.202Z,5700
2017-03-08T09:14:04.895Z,5724
2017-03-08T09:15:14.798Z,5756
2017-03-08T09:16:25.097Z,5792
2017-03-08T09:17:35.824Z,5820
2017-03-08T09:18:46.524Z,5856
2017-03-08T09:19:57.235Z,5892
2017-03-08T09:21:07.926Z,5924
2017-03-08T09:22:18.243Z,5960
2017-03-08T09:23:28.959Z,5992
2017-03-08T09:24:39.709Z,6024
2017-03-08T09:25:50.415Z,6064
2017-03-08T09:27:01.115Z,6100
2017-03-08T09:28:11.832Z,6128
2017-03-08T09:29:22.539Z,6156
2017-03-08T09:30:33.243Z,6188
2017-03-08T09:31:43.566Z,6208
2017-03-08T09:32:54.252Z,6236
2017-03-08T09:34:04.551Z,6268
2017-03-08T09:35:15.275Z,6300
2017-03-08T09:36:25.212Z,6336
2017-03-08T09:37:35.503Z,6368
2017-03-08T09:38:45.814Z,6404
2017-03-08T09:39:56.122Z,6436
2017-03-08T09:41:06.838Z,6460
2017-03-08T09:42:17.569Z,6492
2017-03-08T09:43:27.909Z,6524
2017-03-08T09:44:38.639Z,6548
2017-03-08T09:45:49.377Z,6576
2017-03-08T09:47:00.089Z,6604
2017-03-08T09:48:10.787Z,6632
2017-03-08T09:49:21.499Z,6668
2017-03-08T09:50:31.814Z,6700
2017-03-08T09:51:42.149Z,6736
2017-03-08T09:52:52.843Z,6764
2017-03-08T09:54:03.571Z,6796
2017-03-08T09:55:13.864Z,6820
2017-03-08T09:56:24.195Z,6856
2017-03-08T09:57:34.489Z,6888
2017-03-08T09:58:44.795Z,6928
2017-03-08T09:59:55.508Z,6968
2017-03-08T10:01:05.824Z,7008
2017-03-08T10:02:16.512Z,7052
2017-03-08T10:03:27.217Z,7092
2017-03-08T10:04:37.929Z,7128
2017-03-08T10:05:48.321Z,7160
2017-03-08T10:06:59.022Z,7192
2017-03-08T10:08:09.734Z,7220
2017-03-08T10:09:20.448Z,7264
2017-03-08T10:10:31.156Z,7300
2017-03-08T10:11:41.574Z,7336
2017-03-08T10:12:52.302Z,7368
2017-03-08T10:14:03.018Z,7404
2017-03-08T10:15:13.743Z,7444
2017-03-08T10:16:24.457Z,7484
2017-03-08T10:17:35.173Z,7524
2017-03-08T10:18:45.897Z,7568
2017-03-08T10:19:56.624Z,7604
2017-03-08T10:21:07.361Z,7640
2017-03-08T10:22:18.080Z,7676
2017-03-08T10:23:28.815Z,7708
2017-03-08T10:24:39.550Z,7740
2017-03-08T10:25:49.921Z,7768
2017-03-08T10:27:00.402Z,7800
2017-03-08T10:28:11.122Z,7824
2017-03-08T10:29:21.892Z,7848
2017-03-08T10:30:32.601Z,7864
2017-03-08T10:31:42.547Z,7892
2017-03-08T10:32:52.857Z,7908
2017-03-08T10:34:03.577Z,7928
2017-03-08T10:35:14.348Z,7952
2017-03-08T10:36:24.688Z,7976
2017-03-08T10:37:35.403Z,7992
2017-03-08T10:38:45.741Z,8020
2017-03-08T10:39:56.488Z,8036
2017-03-08T10:41:07.290Z,8060
2017-03-08T10:42:17.995Z,8076
2017-03-08T10:43:28.715Z,8104
2017-03-08T10:44:39.401Z,8140
2017-03-08T10:45:50.120Z,8176
2017-03-08T10:47:00.825Z,8200
2017-03-08T10:48:11.558Z,8220
2017-03-08T10:49:22.274Z,8244
2017-03-08T10:50:32.970Z,8268
2017-03-08T10:51:43.264Z,8284
2017-03-08T10:52:53.972Z,8308
2017-03-08T10:54:04.668Z,8320
2017-03-08T10:55:15.405Z,8336
2017-03-08T10:56:26.136Z,8348
2017-03-08T10:57:36.836Z,8360
2017-03-08T10:58:47.525Z,8372
2017-03-08T10:59:57.843Z,8388
2017-03-08T11:01:08.226Z,8420
2017-03-08T11:02:18.941Z,8448
2017-03-08T11:03:29.659Z,8476
2017-03-08T11:04:40.373Z,8504
2017-03-08T11:05:50.691Z,8532
2017-03-08T11:07:01.400Z,8596
2017-03-08T11:08:12.117Z,8656
2017-03-08T11:09:22.814Z,9004
2017-03-08T11:10:33.125Z,15180
2017-03-08T11:11:43.829Z,35456
2017-03-08T11:12:54.161Z,41344
2017-03-08T11:14:04.880Z,41824
2017-03-08T11:15:15.590Z,40320
2017-03-08T11:16:25.888Z,40736
2017-03-08T11:17:36.604Z,40928
2017-03-08T11:18:47.353Z,39200
2017-03-08T11:19:58.057Z,40416
2017-03-08T11:21:08.774Z,42624
2017-03-08T11:22:19.470Z,43648
2017-03-08T11:23:30.181Z,41056
2017-03-08T11:24:40.512Z,39584
2017-03-08T11:25:51.241Z,42528
2017-03-08T11:27:01.557Z,42720
2017-03-08T11:28:11.499Z,43072
2017-03-08T11:29:22.202Z,40352
2017-03-08T11:30:32.908Z,40192
2017-03-08T11:31:42.427Z,40416
2017-03-08T11:32:53.137Z,41120
2017-03-08T11:34:03.856Z,41568
2017-03-08T11:35:14.612Z,42336
2017-03-08T11:36:24.991Z,41920
2017-03-08T11:37:35.349Z,41664
2017-03-08T11:38:45.261Z,41472
2017-03-08T11:39:55.985Z,42496
2017-03-08T11:41:06.739Z,40896
2017-03-08T11:42:17.455Z,41216
2017-03-08T11:43:28.150Z,43136
2017-03-08T11:44:38.500Z,40096
2017-03-08T11:45:49.213Z,39040
2017-03-08T11:46:59.542Z,40608
2017-03-08T11:48:09.863Z,41056
2017-03-08T11:49:20.568Z,41856
2017-03-08T11:50:31.290Z,40480
2017-03-08T11:51:42.010Z,40256
2017-03-08T11:52:52.715Z,38784
2017-03-08T11:54:03.066Z,44672
2017-03-08T11:55:13.776Z,45792
2017-03-08T11:56:24.492Z,48896
2017-03-08T11:57:35.217Z,47072
2017-03-08T11:58:45.929Z,43424
2017-03-08T11:59:56.640Z,41472
2017-03-08T12:01:07.384Z,39232
2017-03-08T12:02:18.101Z,37536
2017-03-08T12:03:28.874Z,34752
2017-03-08T12:04:39.176Z,30880
2017-03-08T12:05:49.496Z,27456
2017-03-08T12:07:00.234Z,25728
2017-03-08T12:08:10.966Z,24352
2017-03-08T12:09:21.675Z,24224
2017-03-08T12:10:32.405Z,23488
2017-03-08T12:11:43.121Z,22432
2017-03-08T12:12:53.851Z,22016
2017-03-08T12:14:04.190Z,21824
2017-03-08T12:15:14.920Z,21856
2017-03-08T12:16:25.642Z,21728
2017-03-08T12:17:36.372Z,21728
2017-03-08T12:18:46.701Z,22240
2017-03-08T12:19:57.413Z,22752
2017-03-08T12:21:07.747Z,22304
2017-03-08T12:22:18.517Z,22080
2017-03-08T12:23:29.239Z,22208
2017-03-08T12:24:39.955Z,22336
2017-03-08T12:25:50.662Z,22400
2017-03-08T12:27:01.375Z,22400
2017-03-08T12:28:12.111Z,22496
2017-03-08T12:29:22.861Z,22720
2017-03-08T12:30:33.175Z,22848
2017-03-08T12:31:43.909Z,22752
2017-03-08T12:32:54.647Z,22720
2017-03-08T12:34:04.952Z,22560
2017-03-08T12:35:15.691Z,22432
2017-03-08T12:36:26.407Z,22336
2017-03-08T12:37:37.149Z,22304
2017-03-08T12:38:47.461Z,22144
2017-03-08T12:39:58.194Z,22464
2017-03-08T12:41:08.919Z,22592
2017-03-08T12:42:19.652Z,22592
2017-03-08T12:43:30.386Z,22496
2017-03-08T12:44:40.695Z,22496
2017-03-08T12:45:51.015Z,22400
2017-03-08T12:47:01.737Z,22496
2017-03-08T12:48:12.061Z,22592
2017-03-08T12:49:22.775Z,22656
2017-03-08T12:50:33.506Z,22464
2017-03-08T12:51:43.829Z,22560
2017-03-08T12:52:54.139Z,22688
2017-03-08T12:54:04.869Z,22816
2017-03-08T12:55:15.620Z,22848
2017-03-08T12:56:26.335Z,22944
2017-03-08T12:57:36.659Z,23136
2017-03-08T12:58:46.595Z,23264
2017-03-08T12:59:56.931Z,23104
2017-03-08T13:01:07.672Z,22976
2017-03-08T13:02:18.398Z,23008
2017-03-08T13:03:29.142Z,22816
2017-03-08T13:04:39.858Z,22368
2017-03-08T13:05:50.215Z,20992
2017-03-08T13:07:00.529Z,20608
2017-03-08T13:08:11.267Z,21280
2017-03-08T13:09:22.005Z,20224
2017-03-08T13:10:32.732Z,20640
2017-03-08T13:11:43.053Z,21216
2017-03-08T13:12:53.367Z,19296
2017-03-08T13:14:04.105Z,17760
2017-03-08T13:15:14.830Z,17472
2017-03-08T13:16:25.566Z,15436
2017-03-08T13:17:36.270Z,14676
2017-03-08T13:18:46.598Z,16288
2017-03-08T13:19:57.347Z,14784
2017-03-08T13:21:08.068Z,13300
2017-03-08T13:22:18.780Z,12496
2017-03-08T13:23:29.501Z,10340
2017-03-08T13:24:40.240Z,9172
2017-03-08T13:25:50.157Z,9408
2017-03-08T13:27:00.887Z,9528
2017-03-08T13:28:11.606Z,9252
2017-03-08T13:29:22.323Z,9532
2017-03-08T13:30:32.645Z,10572
2017-03-08T13:31:43.372Z,10336
2017-03-08T13:32:54.074Z,9256
2017-03-08T13:34:04.820Z,8588
2017-03-08T13:35:14.747Z,16160
2017-03-08T13:36:25.458Z,19584
2017-03-08T13:37:35.807Z,17408
2017-03-08T13:38:46.514Z,18688
2017-03-08T13:39:57.228Z,16384
2017-03-08T13:41:07.926Z,15428
2017-03-08T13:42:18.257Z,23392
2017-03-08T13:43:28.978Z,25760
2017-03-08T13:44:39.702Z,23200
2017-03-08T13:45:49.620Z,13468
2017-03-08T13:47:00.325Z,16416
2017-03-08T13:48:11.058Z,18400
2017-03-08T13:49:21.755Z,16448
2017-03-08T13:50:32.465Z,20896
2017-03-08T13:51:43.182Z,27456
2017-03-08T13:52:53.905Z,26656
2017-03-08T13:54:04.317Z,28704
2017-03-08T13:55:14.646Z,30400
2017-03-08T13:56:25.361Z,24896
2017-03-08T13:57:36.074Z,21120
2017-03-08T13:58:46.794Z,22976
2017-03-08T13:59:57.493Z,20384
2017-03-08T14:01:07.819Z,16768
2017-03-08T14:02:18.529Z,12752
2017-03-08T14:03:29.232Z,9932
2017-03-08T14:04:39.934Z,16864
2017-03-08T14:05:50.659Z,27040
2017-03-08T14:07:01.394Z,28928
2017-03-08T14:08:12.116Z,23200
2017-03-08T14:09:22.837Z,22912
2017-03-08T14:10:33.546Z,23712
2017-03-08T14:11:43.865Z,29312
2017-03-08T14:12:54.580Z,29952
2017-03-08T14:14:04.913Z,15080
2017-03-08T14:15:15.223Z,11416
2017-03-08T14:16:25.961Z,23776
2017-03-08T14:17:36.671Z,20032
2017-03-08T14:18:46.974Z,17888
2017-03-08T14:19:57.687Z,22016
2017-03-08T14:21:08.406Z,24320
2017-03-08T14:22:19.109Z,28960
2017-03-08T14:23:29.420Z,20384
2017-03-08T14:24:39.352Z,11672
2017-03-08T14:25:50.051Z,11344
2017-03-08T14:27:00.762Z,13936
2017-03-08T14:28:11.103Z,17984
2017-03-08T14:29:21.825Z,24192
2017-03-08T14:30:32.536Z,27456
2017-03-08T14:31:43.237Z,24352
2017-03-08T14:32:53.960Z,15488
2017-03-08T14:34:04.272Z,15808
2017-03-08T14:35:14.991Z,12772
2017-03-08T14:36:25.292Z,10972
2017-03-08T14:37:36.014Z,11216
2017-03-08T14:38:46.740Z,12544
2017-03-08T14:39:57.469Z,16704
2017-03-08T14:41:07.798Z,21216
2017-03-08T14:42:18.511Z,19744
2017-03-08T14:43:29.236Z,11812
2017-03-08T14:44:39.534Z,13144
2017-03-08T14:45:50.230Z,11832
2017-03-08T14:47:00.543Z,10616
2017-03-08T14:48:11.250Z,12732
2017-03-08T14:49:21.955Z,19744
2017-03-08T14:50:32.652Z,18784
2017-03-08T14:51:42.559Z,15616
2017-03-08T14:52:52.491Z,17472
2017-03-08T14:54:03.207Z,13856
2017-03-08T14:55:13.913Z,11332
2017-03-08T14:56:24.235Z,12060
2017-03-08T14:57:33.773Z,12160
2017-03-08T14:58:44.480Z,10896
2017-03-08T14:59:54.779Z,10600
2017-03-08T15:01:05.508Z,8680
2017-03-08T15:02:15.813Z,11552
2017-03-08T15:03:26.518Z,12536
2017-03-08T15:04:37.251Z,17824
2017-03-08T15:05:47.987Z,20960
2017-03-08T15:06:58.292Z,19264
2017-03-08T15:08:09.014Z,16672
2017-03-08T15:09:19.729Z,17920
2017-03-08T15:10:30.483Z,11756
2017-03-08T15:11:41.214Z,5892
2017-03-08T15:12:51.517Z,5412
2017-03-08T15:14:02.239Z,5088
2017-03-08T15:15:12.962Z,4820
2017-03-08T15:16:23.668Z,4316
2017-03-08T15:17:33.988Z,4160
2017-03-08T15:18:44.705Z,4084
2017-03-08T15:19:54.619Z,4056
2017-03-08T15:21:05.330Z,3964
2017-03-08T15:22:16.051Z,3928
2017-03-08T15:23:26.374Z,3964
2017-03-08T15:24:37.108Z,4032
2017-03-08T15:25:47.409Z,4252
2017-03-08T15:26:58.105Z,4536
2017-03-08T15:28:08.825Z,4912
2017-03-08T15:29:19.538Z,5532
2017-03-08T15:30:30.291Z,6456
2017-03-08T15:31:40.987Z,7688
2017-03-08T15:32:51.280Z,8300
2017-03-08T15:34:01.980Z,9100
2017-03-08T15:35:12.721Z,9632
2017-03-08T15:36:23.426Z,9192
2017-03-08T15:37:34.118Z,7272
2017-03-08T15:38:44.814Z,6760
2017-03-08T15:39:55.119Z,6088
2017-03-08T15:41:05.820Z,5880
2017-03-08T15:42:16.544Z,5880
2017-03-08T15:43:27.236Z,6368
2017-03-08T15:44:37.929Z,6704
2017-03-08T15:45:47.462Z,5572
2017-03-08T15:46:58.153Z,4908
2017-03-08T15:48:08.860Z,4632
2017-03-08T15:49:19.156Z,4220
2017-03-08T15:50:29.464Z,3972
2017-03-08T15:51:40.193Z,3772
2017-03-08T15:52:50.086Z,3604
2017-03-08T15:54:00.014Z,3480
2017-03-08T15:55:10.337Z,3364
2017-03-08T15:56:21.026Z,3256
2017-03-08T15:57:31.731Z,3156
2017-03-08T15:58:42.041Z,3120
2017-03-08T15:59:52.336Z,3156
2017-03-08T16:01:02.637Z,3180
2017-03-08T16:02:12.980Z,3176
2017-03-08T16:03:23.706Z,3172
2017-03-08T16:04:34.404Z,3152
2017-03-08T16:05:45.119Z,3140
2017-03-08T16:06:55.819Z,3108
2017-03-08T16:08:06.530Z,3048
2017-03-08T16:09:17.245Z,3004